createdAt,value
2023-09-13T00:00:56.142Z,20.31
2023-09-13T00:03:23.075Z,20.56
2023-09-13T00:05:49.809Z,20.44
2023-09-13T00:08:16.564Z,20.31
2023-09-13T00:10:45.799Z,20.31
2023-09-13T00:13:14.142Z,20.56
2023-09-13T00:15:45.486Z,20.50
2023-09-13T00:18:17.076Z,20.63
2023-09-13T00:20:45.028Z,20.63
2023-09-13T00:23:11.757Z,20.44
2023-09-13T00:25:38.518Z,20.38
2023-09-13T00:28:05.628Z,20.56
2023-09-13T00:30:32.831Z,20.63
2023-09-13T00:32:59.602Z,20.63
2023-09-13T00:35:26.420Z,20.69
2023-09-13T00:37:53.076Z,20.50
2023-09-13T00:40:19.811Z,20.38
2023-09-13T00:42:46.583Z,20.44
2023-09-13T00:45:13.656Z,20.25
2023-09-13T00:47:43.037Z,20.25
2023-09-13T00:50:13.857Z,20.38
2023-09-13T00:52:42.960Z,20.25
2023-09-13T00:55:11.597Z,20.31
2023-09-13T00:57:38.507Z,20.31
2023-09-13T01:00:12.620Z,20.38
2023-09-13T01:02:41.569Z,20.38
2023-09-13T01:05:14.548Z,20.19
2023-09-13T01:07:43.018Z,20.13
2023-09-13T01:10:11.394Z,20.13
2023-09-13T01:12:38.907Z,20.38
2023-09-13T01:15:07.774Z,20.50
2023-09-13T01:17:47.795Z,20.44
2023-09-13T01:20:47.657Z,20.25
2023-09-13T01:23:23.635Z,20.00
2023-09-13T01:26:21.757Z,19.69
2023-09-13T01:28:51.723Z,19.69
2023-09-13T01:31:19.255Z,19.63
2023-09-13T01:33:46.476Z,19.75
2023-09-13T01:36:13.635Z,19.88
2023-09-13T01:38:41.366Z,19.88
2023-09-13T01:41:34.677Z,19.88
2023-09-13T01:44:01.550Z,19.81
2023-09-13T01:46:35.264Z,19.88
2023-09-13T01:49:04.148Z,19.94
2023-09-13T01:51:34.219Z,19.94
2023-09-13T01:54:01.298Z,19.94
2023-09-13T01:56:28.402Z,20.00
2023-09-13T01:58:55.358Z,20.06
2023-09-13T02:01:23.140Z,19.94
2023-09-13T02:03:50.114Z,19.94
2023-09-13T02:06:16.927Z,19.88
2023-09-13T02:08:44.470Z,19.75
2023-09-13T02:11:12.002Z,19.81
2023-09-13T02:13:39.114Z,19.88
2023-09-13T02:16:06.270Z,19.88
2023-09-13T02:18:34.165Z,19.81
2023-09-13T02:21:00.819Z,19.94
2023-09-13T02:23:27.541Z,19.88
2023-09-13T02:25:55.643Z,19.75
2023-09-13T02:28:22.358Z,19.88
2023-09-13T02:30:49.359Z,19.63
2023-09-13T02:33:16.076Z,19.38
2023-09-13T02:35:42.786Z,19.19
2023-09-13T02:38:09.452Z,19.13
2023-09-13T02:40:38.004Z,19.31
2023-09-13T02:43:05.008Z,19.25
2023-09-13T02:45:31.706Z,19.31
2023-09-13T02:47:58.617Z,19.31
2023-09-13T02:50:25.329Z,19.44
2023-09-13T02:52:52.087Z,19.56
2023-09-13T02:55:18.925Z,19.31
2023-09-13T02:57:45.645Z,19.38
2023-09-13T03:00:12.926Z,19.38
2023-09-13T03:02:39.676Z,19.50
2023-09-13T03:05:07.814Z,19.50
2023-09-13T03:07:34.521Z,19.13
2023-09-13T03:10:01.245Z,19.00
2023-09-13T03:12:28.062Z,19.00
2023-09-13T03:14:57.339Z,18.94
2023-09-13T03:17:24.240Z,18.63
2023-09-13T03:19:50.999Z,18.63
2023-09-13T03:22:17.718Z,18.75
2023-09-13T03:24:44.453Z,18.75
2023-09-13T03:27:11.212Z,18.69
2023-09-13T03:29:37.898Z,18.75
2023-09-13T03:32:06.072Z,18.81
2023-09-13T03:34:32.834Z,18.69
2023-09-13T03:36:59.567Z,18.63
2023-09-13T03:39:29.322Z,18.56
2023-09-13T03:42:00.067Z,18.44
2023-09-13T03:44:27.128Z,18.50
2023-09-13T03:46:53.973Z,18.50
2023-09-13T03:49:20.754Z,18.56
2023-09-13T03:51:47.798Z,18.63
2023-09-13T03:54:14.501Z,18.56
2023-09-13T03:56:41.129Z,18.50
2023-09-13T03:59:07.776Z,18.50
2023-09-13T04:01:34.782Z,18.44
2023-09-13T04:04:01.500Z,18.38
2023-09-13T04:06:28.557Z,18.44
2023-09-13T04:08:55.632Z,18.38
2023-09-13T04:11:22.295Z,18.38
2023-09-13T04:13:48.970Z,18.38
2023-09-13T04:16:17.022Z,18.31
2023-09-13T04:18:43.889Z,18.25
2023-09-13T04:21:10.538Z,18.25
2023-09-13T04:23:37.167Z,18.25
2023-09-13T04:26:04.639Z,18.38
2023-09-13T04:28:33.384Z,18.38
2023-09-13T04:31:00.990Z,18.31
2023-09-13T04:33:50.670Z,18.38
2023-09-13T04:36:17.521Z,18.44
2023-09-13T04:38:44.290Z,18.38
2023-09-13T04:41:15.514Z,18.38
2023-09-13T04:43:43.104Z,18.44
2023-09-13T04:46:10.559Z,18.44
2023-09-13T04:48:37.364Z,18.50
2023-09-13T04:51:05.609Z,18.38
2023-09-13T04:53:33.144Z,18.38
2023-09-13T04:56:01.778Z,18.31
2023-09-13T04:58:31.777Z,18.38
2023-09-13T05:01:00.118Z,18.38
2023-09-13T05:03:27.130Z,18.38
2023-09-13T05:05:56.198Z,18.38
2023-09-13T05:08:22.885Z,18.31
2023-09-13T05:10:52.733Z,18.25
2023-09-13T05:13:19.587Z,18.38
2023-09-13T05:15:46.469Z,18.31
2023-09-13T05:18:13.292Z,18.31
2023-09-13T05:20:40.075Z,18.38
2023-09-13T05:23:06.798Z,18.25
2023-09-13T05:25:34.491Z,18.25
2023-09-13T05:28:01.924Z,18.25
2023-09-13T05:30:33.390Z,18.31
2023-09-13T05:33:00.074Z,18.25
2023-09-13T05:35:26.846Z,18.19
2023-09-13T05:37:53.550Z,18.31
2023-09-13T05:40:20.406Z,18.38
2023-09-13T05:42:47.155Z,18.31
2023-09-13T05:45:13.806Z,18.31
2023-09-13T05:47:40.516Z,18.38
2023-09-13T05:50:07.642Z,18.38
2023-09-13T05:52:34.390Z,18.38
2023-09-13T05:55:01.159Z,18.44
2023-09-13T05:57:29.431Z,18.38
2023-09-13T05:59:56.156Z,18.38
2023-09-13T06:02:22.913Z,18.31
2023-09-13T06:04:49.652Z,18.19
2023-09-13T06:07:16.615Z,18.13
2023-09-13T06:09:43.341Z,18.06
2023-09-13T06:12:10.211Z,18.06
2023-09-13T06:14:38.121Z,18.00
2023-09-13T06:17:05.052Z,17.94
2023-09-13T06:19:32.176Z,17.94
2023-09-13T06:21:58.891Z,17.88
2023-09-13T06:24:25.630Z,17.75
2023-09-13T06:26:53.696Z,17.63
2023-09-13T06:29:20.575Z,17.50
2023-09-13T06:32:04.051Z,17.38
2023-09-13T06:34:32.820Z,17.19
2023-09-13T06:37:00.436Z,17.25
2023-09-13T06:39:28.202Z,17.31
2023-09-13T06:41:55.474Z,17.13
2023-09-13T06:44:39.945Z,17.06
2023-09-13T06:47:09.251Z,17.06
2023-09-13T06:49:37.817Z,17.00
2023-09-13T06:52:06.570Z,16.94
2023-09-13T06:54:36.344Z,17.00
2023-09-13T06:57:05.727Z,16.88
2023-09-13T06:59:47.135Z,16.88
2023-09-13T07:02:31.308Z,16.81
2023-09-13T07:07:30.133Z,16.69
2023-09-13T07:09:56.745Z,16.63
2023-09-13T07:12:27.315Z,16.63
2023-09-13T07:14:55.826Z,16.81
2023-09-13T07:17:22.746Z,16.81
2023-09-13T07:19:50.349Z,16.94
2023-09-13T07:22:17.708Z,16.94
2023-09-13T07:24:44.672Z,17.00
2023-09-13T07:27:11.434Z,16.94
2023-09-13T07:29:38.118Z,16.94
2023-09-13T07:32:05.140Z,16.94
2023-09-13T07:34:32.938Z,17.06
2023-09-13T07:36:59.785Z,17.06
2023-09-13T07:39:26.462Z,17.19
2023-09-13T07:41:53.088Z,17.19
2023-09-13T07:44:19.740Z,17.50
2023-09-13T07:46:46.621Z,17.94
2023-09-13T07:49:13.325Z,18.44
2023-09-13T07:51:40.010Z,18.81
2023-09-13T07:54:08.886Z,19.00
2023-09-13T07:56:38.397Z,19.38
2023-09-13T07:59:06.698Z,19.75
2023-09-13T08:01:33.440Z,20.00
2023-09-13T08:04:00.248Z,20.44
2023-09-13T08:06:26.950Z,20.75
2023-09-13T08:08:53.762Z,21.00
2023-09-13T08:11:20.434Z,21.25
2023-09-13T08:13:47.100Z,21.63
2023-09-13T08:16:13.908Z,21.94
2023-09-13T08:18:40.592Z,21.81
2023-09-13T08:21:07.351Z,21.75
2023-09-13T08:23:34.210Z,21.56
2023-09-13T08:26:13.379Z,21.75
2023-09-13T08:28:47.757Z,22.00
2023-09-13T08:31:14.612Z,21.56
2023-09-13T08:33:41.276Z,21.69
2023-09-13T08:36:08.258Z,21.88
2023-09-13T08:38:34.987Z,22.63
2023-09-13T08:41:03.969Z,22.44
2023-09-13T08:43:33.175Z,22.19
2023-09-13T08:46:01.314Z,22.25
2023-09-13T08:48:29.129Z,22.50
2023-09-13T08:50:56.006Z,22.63
2023-09-13T08:53:23.925Z,22.63
2023-09-13T08:55:52.118Z,22.81
2023-09-13T08:58:20.008Z,22.94
2023-09-13T09:00:50.756Z,22.50
2023-09-13T09:03:21.746Z,23.06
2023-09-13T09:05:49.230Z,23.25
2023-09-13T09:08:16.265Z,23.81
2023-09-13T09:10:44.377Z,23.50
2023-09-13T09:13:12.437Z,23.94
2023-09-13T09:15:41.521Z,24.00
2023-09-13T09:18:13.153Z,24.06
2023-09-13T09:20:40.824Z,24.75
2023-09-13T09:23:09.032Z,24.31
2023-09-13T09:25:40.747Z,24.94
2023-09-13T09:28:07.570Z,25.44
2023-09-13T09:30:34.715Z,25.00
2023-09-13T09:33:08.015Z,25.13
2023-09-13T09:35:36.341Z,25.38
2023-09-13T09:38:07.098Z,24.94
2023-09-13T09:40:40.114Z,24.63
2023-09-13T09:43:09.263Z,24.94
2023-09-13T09:45:36.080Z,25.31
2023-09-13T09:48:03.476Z,25.31
2023-09-13T09:50:33.351Z,24.38
2023-09-13T09:53:00.300Z,25.31
2023-09-13T09:55:27.278Z,26.19
2023-09-13T09:57:56.748Z,26.38
2023-09-13T10:00:23.799Z,25.88
2023-09-13T10:02:50.925Z,25.25
2023-09-13T10:05:19.584Z,25.56
2023-09-13T10:07:57.644Z,25.50
2023-09-13T10:10:34.952Z,24.94
2023-09-13T10:13:02.151Z,25.13
2023-09-13T10:15:29.345Z,25.25
2023-09-13T10:17:56.911Z,25.38
2023-09-13T10:20:25.252Z,25.38
2023-09-13T10:22:55.773Z,25.50
2023-09-13T10:25:26.736Z,25.81
2023-09-13T10:27:55.774Z,26.06
2023-09-13T10:30:29.100Z,25.38
2023-09-13T10:32:59.526Z,24.94
2023-09-13T10:35:30.618Z,24.69
2023-09-13T10:38:07.589Z,24.88
2023-09-13T10:40:41.115Z,25.19
2023-09-13T10:43:09.996Z,25.56
2023-09-13T10:45:42.118Z,26.00
2023-09-13T10:48:09.989Z,25.75
2023-09-13T10:50:38.500Z,26.19
2023-09-13T10:53:05.483Z,26.13
2023-09-13T10:55:34.023Z,26.25
2023-09-13T10:58:04.303Z,26.44
2023-09-13T11:00:33.473Z,26.75
2023-09-13T11:03:01.104Z,26.81
2023-09-13T11:05:30.100Z,26.69
2023-09-13T11:07:57.073Z,26.63
2023-09-13T11:10:23.892Z,25.94
2023-09-13T11:12:51.573Z,25.25
2023-09-13T11:15:27.659Z,25.06
2023-09-13T11:18:15.048Z,24.06
2023-09-13T11:20:43.545Z,23.88
2023-09-13T11:23:31.935Z,23.81
2023-09-13T11:26:10.951Z,23.63
2023-09-13T11:28:39.144Z,23.19
2023-09-13T11:31:08.453Z,23.13
2023-09-13T11:33:59.549Z,23.31
2023-09-13T11:36:28.741Z,23.44
2023-09-13T11:39:01.268Z,23.13
2023-09-13T11:41:28.256Z,23.06
2023-09-13T11:44:04.039Z,22.63
2023-09-13T11:46:34.009Z,22.38
2023-09-13T11:49:03.504Z,22.38
2023-09-13T11:54:19.320Z,22.50
2023-09-13T11:56:50.241Z,22.50
2023-09-13T11:59:20.115Z,22.25
2023-09-13T12:01:51.191Z,22.44
2023-09-13T12:04:51.794Z,22.69
2023-09-13T12:07:12.507Z,23.06
2023-09-13T12:09:40.286Z,23.00
2023-09-13T12:12:11.914Z,23.38
2023-09-13T12:14:57.699Z,23.88
2023-09-13T12:17:37.976Z,24.13
2023-09-13T12:20:09.233Z,24.31
2023-09-13T12:22:41.458Z,24.25
2023-09-13T12:25:12.333Z,24.31
2023-09-13T12:27:39.606Z,24.38
2023-09-13T12:30:15.912Z,24.44
2023-09-13T12:32:42.835Z,24.75
2023-09-13T12:35:09.757Z,24.94
2023-09-13T12:37:36.484Z,25.25
2023-09-13T12:40:15.615Z,25.31
2023-09-13T12:42:43.481Z,25.19
2023-09-13T12:45:10.779Z,24.94
2023-09-13T12:47:38.363Z,24.88
2023-09-13T12:50:18.421Z,24.31
2023-09-13T12:52:54.700Z,24.25
2023-09-13T12:55:25.720Z,24.00
2023-09-13T12:57:53.676Z,24.06
2023-09-13T13:00:20.607Z,23.88
2023-09-13T13:02:54.601Z,24.13
2023-09-13T13:05:21.320Z,24.25
2023-09-13T13:08:01.965Z,24.75
2023-09-13T13:10:29.668Z,25.19
2023-09-13T13:12:56.534Z,25.25
2023-09-13T13:15:31.680Z,24.56
2023-09-13T13:17:58.548Z,24.44
2023-09-13T13:20:27.937Z,24.56
2023-09-13T13:22:55.324Z,24.69
2023-09-13T13:25:22.943Z,24.56
2023-09-13T13:27:50.527Z,24.56
2023-09-13T13:30:17.220Z,24.88
2023-09-13T13:32:43.932Z,24.75
2023-09-13T13:35:10.743Z,24.56
2023-09-13T13:37:37.430Z,24.31
2023-09-13T13:40:04.347Z,24.63
2023-09-13T13:42:31.107Z,24.63
2023-09-13T13:44:57.839Z,24.44
2023-09-13T13:47:24.490Z,24.44
2023-09-13T13:49:51.110Z,24.81
2023-09-13T13:52:17.733Z,25.25
2023-09-13T13:54:44.484Z,25.25
2023-09-13T13:57:13.316Z,25.19
2023-09-13T13:59:40.582Z,25.19
2023-09-13T14:02:07.455Z,25.69
2023-09-13T14:04:34.156Z,25.19
2023-09-13T14:07:00.881Z,24.88
2023-09-13T14:09:27.649Z,25.13
2023-09-13T14:11:54.274Z,25.50
2023-09-13T14:14:21.035Z,25.69
2023-09-13T14:16:51.519Z,25.63
2023-09-13T14:19:18.478Z,25.81
2023-09-13T14:21:45.544Z,25.88
2023-09-13T14:24:12.341Z,25.81
2023-09-13T14:26:39.120Z,25.75
2023-09-13T14:29:06.139Z,25.88
2023-09-13T14:31:38.129Z,26.13
2023-09-13T14:34:07.155Z,26.06
2023-09-13T14:36:33.887Z,25.94
2023-09-13T14:39:00.628Z,25.88
2023-09-13T14:41:27.245Z,25.94
2023-09-13T14:43:53.853Z,25.75
2023-09-13T14:46:20.560Z,25.69
2023-09-13T14:48:50.107Z,25.63
2023-09-13T14:51:16.953Z,25.75
2023-09-13T14:53:43.760Z,25.94
2023-09-13T14:56:10.420Z,25.94
2023-09-13T14:58:37.071Z,26.19
2023-09-13T15:01:05.937Z,25.50
2023-09-13T15:03:34.997Z,25.25
2023-09-13T15:06:04.693Z,25.19
2023-09-13T15:08:31.422Z,25.19
2023-09-13T15:10:58.069Z,24.88
2023-09-13T15:13:24.823Z,25.31
2023-09-13T15:15:52.713Z,24.94
2023-09-13T15:18:19.841Z,24.94
2023-09-13T15:20:47.510Z,24.69
2023-09-13T15:23:14.280Z,25.31
2023-09-13T15:25:40.960Z,25.00
2023-09-13T15:28:07.612Z,25.31
2023-09-13T15:30:34.291Z,24.63
2023-09-13T15:33:01.119Z,24.50
2023-09-13T15:35:28.613Z,24.56
2023-09-13T15:37:55.305Z,24.63
2023-09-13T15:40:21.975Z,24.31
2023-09-13T15:42:49.033Z,24.50
2023-09-13T15:45:17.200Z,24.75
2023-09-13T15:47:46.225Z,24.31
2023-09-13T15:50:12.983Z,24.38
2023-09-13T15:52:39.659Z,24.25
2023-09-13T15:55:06.455Z,24.31
2023-09-13T15:57:33.138Z,24.25
2023-09-13T15:59:59.961Z,24.13
2023-09-13T16:02:26.771Z,24.13
2023-09-13T16:04:53.615Z,23.69
2023-09-13T16:07:20.274Z,23.56
2023-09-13T16:09:46.984Z,23.44
2023-09-13T16:12:13.771Z,23.31
2023-09-13T16:14:40.774Z,23.38
2023-09-13T16:17:08.251Z,22.94
2023-09-13T16:19:35.021Z,23.25
2023-09-13T16:22:03.104Z,23.19
2023-09-13T16:24:29.825Z,23.06
2023-09-13T16:26:57.525Z,22.69
2023-09-13T16:29:25.712Z,22.88
2023-09-13T16:31:52.565Z,22.56
2023-09-13T16:34:19.298Z,22.13
2023-09-13T16:36:45.955Z,22.38
2023-09-13T16:39:17.191Z,22.63
2023-09-13T16:41:44.131Z,22.25
2023-09-13T16:44:10.811Z,22.38
2023-09-13T16:46:37.488Z,22.31
2023-09-13T16:49:04.390Z,22.19
2023-09-13T16:51:31.100Z,22.00
2023-09-13T16:53:58.613Z,21.44
2023-09-13T16:56:25.900Z,21.38
2023-09-13T16:58:52.886Z,21.19
2023-09-13T17:01:19.714Z,21.06
2023-09-13T17:03:47.183Z,20.94
2023-09-13T17:06:14.864Z,21.00
2023-09-13T17:08:42.278Z,21.13
2023-09-13T17:11:14.073Z,20.81
2023-09-13T17:13:41.616Z,20.63
2023-09-13T17:16:08.881Z,20.75
2023-09-13T17:18:35.698Z,20.50
2023-09-13T17:21:02.490Z,20.44
2023-09-13T17:23:30.385Z,20.31
2023-09-13T17:25:57.529Z,20.56
2023-09-13T17:28:24.979Z,20.13
2023-09-13T17:30:55.296Z,20.19
2023-09-13T17:33:22.232Z,20.19
2023-09-13T17:35:49.825Z,20.31
2023-09-13T17:38:16.738Z,20.06
2023-09-13T17:40:43.687Z,20.13
2023-09-13T17:43:10.312Z,20.06
2023-09-13T17:45:38.205Z,19.50
2023-09-13T17:48:05.696Z,19.81
2023-09-13T17:50:33.716Z,19.88
2023-09-13T17:53:05.073Z,19.94
2023-09-13T17:55:32.561Z,20.00
2023-09-13T17:58:01.204Z,19.94
2023-09-13T18:00:31.347Z,19.75
2023-09-13T18:02:58.298Z,19.56
2023-09-13T18:05:25.213Z,19.44
2023-09-13T18:07:59.265Z,19.44
2023-09-13T18:10:26.823Z,19.75
2023-09-13T18:12:53.673Z,19.50
2023-09-13T18:15:20.743Z,19.56
2023-09-13T18:17:55.187Z,19.44
2023-09-13T18:20:23.394Z,19.00
2023-09-13T18:22:50.202Z,19.44
2023-09-13T18:25:17.217Z,19.56
2023-09-13T18:27:44.181Z,19.50
2023-09-13T18:30:12.154Z,19.13
2023-09-13T18:32:38.997Z,19.31
2023-09-13T18:35:06.247Z,19.25
2023-09-13T18:37:34.511Z,19.19
2023-09-13T18:40:01.172Z,19.25
2023-09-13T18:42:27.963Z,19.13
2023-09-13T18:44:55.977Z,18.94
2023-09-13T18:47:22.651Z,18.88
2023-09-13T18:49:49.301Z,18.63
2023-09-13T18:52:16.294Z,18.56
2023-09-13T18:54:43.014Z,18.44
2023-09-13T18:57:11.119Z,18.31
2023-09-13T18:59:40.750Z,18.31
2023-09-13T19:02:07.462Z,18.44
2023-09-13T19:04:34.202Z,18.38
2023-09-13T19:07:09.504Z,18.19
2023-09-13T19:09:39.799Z,18.38
2023-09-13T19:12:07.906Z,18.06
2023-09-13T19:14:34.766Z,18.13
2023-09-13T19:17:01.693Z,18.06
2023-09-13T19:19:28.342Z,17.94
2023-09-13T19:21:55.104Z,17.94
2023-09-13T19:24:21.906Z,18.06
2023-09-13T19:26:48.586Z,17.94
2023-09-13T19:29:15.590Z,17.88
2023-09-13T19:31:42.416Z,17.88
2023-09-13T19:34:09.144Z,17.88
2023-09-13T19:36:35.870Z,17.88
2023-09-13T19:39:03.546Z,17.69
2023-09-13T19:41:30.217Z,17.75
2023-09-13T19:43:57.381Z,17.81
2023-09-13T19:46:24.289Z,17.63
2023-09-13T19:48:51.060Z,17.81
2023-09-13T19:51:17.919Z,17.94
2023-09-13T19:53:44.818Z,17.63
2023-09-13T19:56:11.690Z,17.63
2023-09-13T19:58:40.432Z,17.56
2023-09-13T20:01:09.310Z,17.56
2023-09-13T20:03:36.775Z,17.25
2023-09-13T20:06:21.816Z,17.25
2023-09-13T20:08:49.054Z,16.94
2023-09-13T20:11:16.938Z,17.13
2023-09-13T20:13:44.689Z,17.06
2023-09-13T20:16:11.480Z,16.88
2023-09-13T20:18:38.663Z,17.13
2023-09-13T20:21:05.824Z,16.94
2023-09-13T20:23:32.733Z,17.00
2023-09-13T20:26:00.225Z,17.13
2023-09-13T20:28:29.932Z,17.06
2023-09-13T20:30:57.284Z,16.94
2023-09-13T20:33:24.073Z,16.63
2023-09-13T20:35:50.936Z,16.69
2023-09-13T20:38:18.494Z,16.94
2023-09-13T20:40:45.628Z,17.00
2023-09-13T20:43:12.965Z,16.81
2023-09-13T20:45:39.962Z,16.94
2023-09-13T20:48:07.012Z,16.63
2023-09-13T20:50:33.734Z,16.56
2023-09-13T20:53:00.479Z,16.81
2023-09-13T20:55:29.517Z,16.69
2023-09-13T20:57:56.355Z,16.56
2023-09-13T21:00:23.093Z,16.38
2023-09-13T21:02:49.935Z,16.44
2023-09-13T21:05:19.427Z,16.50
2023-09-13T21:07:46.113Z,16.31
2023-09-13T21:10:13.880Z,16.31
2023-09-13T21:12:40.618Z,16.13
2023-09-13T21:15:08.266Z,16.19
2023-09-13T21:17:35.179Z,16.13
2023-09-13T21:20:01.933Z,16.13
2023-09-13T21:22:28.622Z,16.13
2023-09-13T21:24:55.319Z,16.06
2023-09-13T21:27:22.660Z,16.38
2023-09-13T21:29:49.328Z,16.38
2023-09-13T21:32:16.001Z,16.56
2023-09-13T21:34:59.027Z,16.50
2023-09-13T21:37:29.571Z,16.31
2023-09-13T21:39:57.687Z,16.44
2023-09-13T21:42:24.434Z,16.38
2023-09-13T21:44:56.112Z,16.38
2023-09-13T21:47:22.993Z,16.19
2023-09-13T21:49:49.643Z,16.13
2023-09-13T21:52:16.376Z,16.19
2023-09-13T21:54:48.489Z,16.25
2023-09-13T21:57:18.501Z,16.13
2023-09-13T21:59:45.247Z,16.13
2023-09-13T22:02:11.905Z,16.19
2023-09-13T22:04:38.650Z,16.13
2023-09-13T22:07:05.474Z,16.19
2023-09-13T22:09:32.289Z,16.06
2023-09-13T22:11:58.977Z,16.06
2023-09-13T22:14:25.780Z,15.94
2023-09-13T22:16:52.544Z,15.94
2023-09-13T22:19:19.250Z,16.00
2023-09-13T22:21:46.009Z,16.06
2023-09-13T22:24:12.810Z,15.88
2023-09-13T22:26:39.968Z,15.69
2023-09-13T22:29:07.174Z,15.56
2023-09-13T22:31:33.891Z,15.63
2023-09-13T22:34:00.675Z,15.50
2023-09-13T22:36:28.340Z,15.38
2023-09-13T22:39:07.625Z,15.38
2023-09-13T22:41:37.723Z,15.06
2023-09-13T22:44:04.814Z,15.00
2023-09-13T22:46:31.567Z,15.13
2023-09-13T22:48:58.288Z,15.13
2023-09-13T22:51:25.045Z,15.19
2023-09-13T22:53:51.717Z,15.25
2023-09-13T22:56:19.142Z,15.06
2023-09-13T22:58:46.127Z,15.38
2023-09-13T23:01:13.106Z,15.44
2023-09-13T23:03:45.523Z,15.56
2023-09-13T23:06:13.142Z,15.38
2023-09-13T23:08:40.289Z,15.19
2023-09-13T23:11:07.423Z,15.19
2023-09-13T23:13:34.864Z,15.19
2023-09-13T23:16:07.965Z,15.38
2023-09-13T23:18:36.950Z,15.50
2023-09-13T23:21:04.517Z,15.56
2023-09-13T23:23:31.343Z,15.63
2023-09-13T23:26:06.254Z,15.69
2023-09-13T23:28:37.287Z,15.63
2023-09-13T23:31:10.212Z,15.63
2023-09-13T23:33:42.370Z,15.38
2023-09-13T23:36:10.631Z,15.44
2023-09-13T23:38:38.786Z,15.44
2023-09-13T23:41:06.710Z,15.63
2023-09-13T23:43:37.859Z,15.38
2023-09-13T23:46:05.698Z,15.38
2023-09-13T23:48:33.785Z,15.38
2023-09-13T23:51:01.656Z,15.38
2023-09-13T23:53:28.330Z,15.31
2023-09-13T23:55:55.015Z,15.19
2023-09-13T23:58:21.802Z,15.25
